Gulizar_ana — TCOI6 — position and weather

sailwx.info

Track history (hours):
 
Tides and Currents Weather Stations Pressure Air Temp Water Temp Dewpoint Dewpoint Depression Visibility Wind Speed Wind Dir Waves Ship Positions

Gulizar_ana

Last reported at 2017-Oct-21 20:04 UTC. Time now 2017-Oct-23 00:57 UTC.
Position N 39°50' E 023°58'.

Length 81 m; draft 4 m.

Type: Cargo ship. MMSI: 271000825.

Date/timePositionNaut miles runAvg speedWind from/ knotsBaromVisibWave heightAir tempDewpointWater temp
2017-Oct-21 20:04N 39°50' E 023°58'110.6
2017-Oct-21 19:59N 39°50' E 023°59'1710.4
2017-Oct-21 18:18N 39°46' E 024°21'310.0
2017-Oct-21 18:00N 39°45' E 024°25'510.0
2017-Oct-21 17:30N 39°45' E 024°32'610.2
2017-Oct-21 16:53N 39°45' E 024°40'410.2
2017-Oct-21 16:30N 39°45' E 024°45'710.5
2017-Oct-21 15:52N 39°44' E 024°54'710.6
2017-Oct-21 15:14N 39°43' E 025°02'3810.8
2017-Oct-21 11:44N 39°44' E 025°52'210.0
2017-Oct-21 11:30N 39°44' E 025°55'710.5
2017-Oct-21 10:50N 39°45' E 026°04'  
2017-Oct-18 22:10N 37°54' E 025°35'1 9.3
2017-Oct-18 22:00N 37°52' E 025°34'5 9.3
2017-Oct-18 21:30N 37°48' E 025°31'5 9.1
2017-Oct-18 21:00N 37°45' E 025°28'5 9.0
2017-Oct-18 20:30N 37°41' E 025°25'4 9.0
2017-Oct-18 20:00N 37°37' E 025°21'5 9.0
2017-Oct-18 19:30N 37°34' E 025°18'5 9.4
2017-Oct-18 19:00N 37°30' E 025°14'5 9.3
2017-Oct-18 18:30N 37°27' E 025°09'4 8.7
2017-Oct-18 18:00N 37°25' E 025°05'4 8.8
2017-Oct-18 17:30N 37°22' E 025°00'4 8.7
2017-Oct-18 17:00N 37°19' E 024°56'4 8.4
2017-Oct-18 16:30N 37°16' E 024°53'209 7.2
2017-Oct-17 11:28N 37°47' E 020°32'4 9.6
2017-Oct-17 11:00N 37°50' E 020°28'5 9.8
2017-Oct-17 10:30N 37°54' E 020°24'5 9.7
2017-Oct-17 10:00N 37°57' E 020°19'32 9.5
2017-Oct-17 06:38N 38°19' E 019°49'1 9.7
2017-Oct-17 06:30N 38°20' E 019°48'5 9.6
2017-Oct-17 06:01N 38°23' E 019°44'5 9.5
2017-Oct-17 05:30N 38°26' E 019°39'5 9.3
2017-Oct-17 05:00N 38°29' E 019°35'5 9.1
2017-Oct-17 04:30N 38°32' E 019°31'5 9.0
2017-Oct-17 04:00N 38°35' E 019°26'8 9.1
2017-Oct-17 03:05N 38°41' E 019°18'1 9.3
2017-Oct-17 03:00N 38°42' E 019°18'11 9.4
2017-Oct-17 01:50N 38°49' E 019°07'14 9.5
2017-Oct-17 00:23N 38°59' E 018°54'3 9.4
2017-Oct-17 00:00N 39°01' E 018°51'5 9.4
2017-Oct-16 23:30N 39°04' E 018°47'5 9.3
2017-Oct-16 23:00N 39°08' E 018°43'15 9.1
2017-Oct-16 21:22N 39°19' E 018°30'3 9.3
2017-Oct-16 21:00N 39°21' E 018°27'4 9.1
2017-Oct-16 20:30N 39°24' E 018°23'5 9.1
2017-Oct-16 20:00N 39°28' E 018°18'4 9.0
2017-Oct-16 19:31N 39°31' E 018°15'5 9.1
2017-Oct-16 19:00N 39°35' E 018°11'5 9.2
2017-Oct-16 18:31N 39°38' E 018°07'4 8.8
2017-Oct-16 18:01N 39°41' E 018°02'6 8.6
2017-Oct-16 17:16N 39°45' E 017°56'4 8.5
2017-Oct-16 16:44N 39°47' E 017°52'2 8.8
2017-Oct-16 16:30N 39°49' E 017°50'4 9.0
2017-Oct-16 16:01N 39°52' E 017°45'4 8.7
2017-Oct-16 15:31N 39°55' E 017°41'4 8.9
2017-Oct-16 15:00N 39°58' E 017°37'9 8.9
2017-Oct-16 14:00N 40°04' E 017°29'4 9.0
2017-Oct-16 13:31N 40°08' E 017°25'4 8.9
2017-Oct-16 13:00N 40°11' E 017°21'5 9.0
2017-Oct-16 12:30N 40°14' E 017°17'5 9.1
2017-Oct-16 12:01N 40°18' E 017°13'4 9.0
2017-Oct-16 11:30N 40°21' E 017°09'4 7.2
2017-Oct-16 11:00N 40°24' E 017°07'5 9.1
2017-Oct-16 10:30N 40°27' E 017°12'2 4.8
2017-Oct-16 10:00N 40°29' E 017°13'0 0.0
2017-Oct-16 09:30N 40°29' E 017°13'0 0.0
2017-Oct-16 08:59N 40°29' E 017°13'0 0.0
2017-Oct-16 08:29N 40°29' E 017°13'0 0.0
2017-Oct-16 07:59N 40°29' E 017°13'0 0.0
2017-Oct-16 07:29N 40°29' E 017°13'0 0.0
2017-Oct-16 06:59N 40°29' E 017°13'0 0.0
2017-Oct-16 06:29N 40°29' E 017°13'0 0.0
2017-Oct-16 05:59N 40°29' E 017°13'0 0.0
2017-Oct-16 05:29N 40°29' E 017°13'0 0.0
2017-Oct-16 04:59N 40°29' E 017°13'0 0.0
2017-Oct-16 04:29N 40°29' E 017°13'0 0.0
2017-Oct-16 03:59N 40°29' E 017°13'0 0.0
2017-Oct-16 03:29N 40°29' E 017°13'0 0.0
2017-Oct-16 02:59N 40°29' E 017°13'0 0.0
2017-Oct-16 02:29N 40°29' E 017°13'0 0.0
2017-Oct-16 01:59N 40°29' E 017°13'0 0.0
2017-Oct-16 01:29N 40°29' E 017°13'0 0.0
2017-Oct-16 00:59N 40°29' E 017°13'0 0.0
2017-Oct-16 00:29N 40°29' E 017°13'0 0.0
2017-Oct-15 23:59N 40°29' E 017°13'0 0.0
2017-Oct-15 23:29N 40°29' E 017°13'0 0.0
2017-Oct-15 22:59N 40°29' E 017°13'0 0.0
2017-Oct-15 22:29N 40°29' E 017°13'0 0.0
2017-Oct-15 21:59N 40°29' E 017°13'0 0.0
2017-Oct-15 21:29N 40°29' E 017°13'0 0.0
2017-Oct-15 20:59N 40°29' E 017°13'0 0.0
2017-Oct-15 20:29N 40°29' E 017°13'0 0.0
2017-Oct-15 19:59N 40°29' E 017°13'0 0.0
2017-Oct-15 19:29N 40°29' E 017°13'0 0.0
2017-Oct-15 18:59N 40°29' E 017°13'0 0.0
2017-Oct-15 18:29N 40°29' E 017°13'0 0.0
2017-Oct-15 17:59N 40°29' E 017°13'0 0.0
2017-Oct-15 17:29N 40°29' E 017°13'0 0.0
2017-Oct-15 16:59N 40°29' E 017°13'0 0.0
2017-Oct-15 16:29N 40°29' E 017°13'0 0.0
2017-Oct-15 15:59N 40°29' E 017°13'0 0.0
2017-Oct-15 15:29N 40°29' E 017°13'0 0.0
2017-Oct-15 14:59N 40°29' E 017°13'0 0.0
2017-Oct-15 13:59N 40°29' E 017°13'0 0.0
2017-Oct-15 13:29N 40°29' E 017°13'0 0.0
2017-Oct-15 12:59N 40°29' E 017°13'0 0.0
2017-Oct-15 12:29N 40°29' E 017°13'0 0.0
2017-Oct-15 11:59N 40°29' E 017°13'0 0.0
2017-Oct-15 11:29N 40°29' E 017°13'0 0.0
2017-Oct-15 10:59N 40°29' E 017°13'0 0.0
2017-Oct-15 10:29N 40°29' E 017°13'0 0.0
2017-Oct-15 09:59N 40°29' E 017°13'0 0.0
2017-Oct-15 09:29N 40°29' E 017°13'0 0.0
2017-Oct-15 08:58N 40°29' E 017°13'0 0.0
2017-Oct-15 08:28N 40°29' E 017°13'0 0.0
2017-Oct-15 07:58N 40°29' E 017°13'0 0.0
2017-Oct-15 07:28N 40°29' E 017°13'0 0.0
2017-Oct-15 06:58N 40°29' E 017°13'0 0.0
2017-Oct-15 06:28N 40°29' E 017°13'0 0.0
2017-Oct-15 05:58N 40°29' E 017°13'0 0.0
2017-Oct-15 05:28N 40°29' E 017°13'0 0.0
2017-Oct-15 04:58N 40°29' E 017°13'0 0.0
2017-Oct-15 04:28N 40°29' E 017°13'0 0.0
2017-Oct-15 03:58N 40°29' E 017°13'0 0.0
2017-Oct-15 03:28N 40°29' E 017°13'0 0.0
2017-Oct-15 02:58N 40°29' E 017°13'0 0.0
2017-Oct-15 02:28N 40°29' E 017°13'0 0.0
2017-Oct-15 01:58N 40°29' E 017°13'0 0.0
2017-Oct-15 01:28N 40°29' E 017°13'0 0.0
2017-Oct-15 00:58N 40°29' E 017°13'0 0.0
2017-Oct-15 00:28N 40°29' E 017°13'0 0.0
2017-Oct-14 23:58N 40°29' E 017°13'0 0.0
2017-Oct-14 23:28N 40°29' E 017°13'0 0.0
2017-Oct-14 22:58N 40°29' E 017°13'0 0.0
2017-Oct-14 22:28N 40°29' E 017°13'0 0.0
2017-Oct-14 21:58N 40°29' E 017°13'0 0.0
2017-Oct-14 21:28N 40°29' E 017°13'0 0.0
2017-Oct-14 20:58N 40°29' E 017°13'0 0.0
2017-Oct-14 20:28N 40°29' E 017°13'0 0.0
2017-Oct-14 19:58N 40°29' E 017°13'0 0.0
2017-Oct-14 19:28N 40°29' E 017°13'0 0.0
2017-Oct-14 18:58N 40°29' E 017°13'0 0.0
2017-Oct-14 18:28N 40°29' E 017°13'0 0.0
2017-Oct-14 17:58N 40°29' E 017°13'0 0.0
2017-Oct-14 17:28N 40°29' E 017°13'0 0.0
2017-Oct-14 16:58N 40°29' E 017°13'0 0.0
2017-Oct-14 16:28N 40°29' E 017°13'0 0.0
2017-Oct-14 15:58N 40°29' E 017°13'0 0.0
2017-Oct-14 15:28N 40°29' E 017°13'0 0.0
2017-Oct-14 14:58N 40°29' E 017°13'0 0.0
2017-Oct-14 14:28N 40°29' E 017°13'0 0.0
2017-Oct-14 13:58N 40°29' E 017°13'0 0.0
2017-Oct-14 13:28N 40°29' E 017°13'0 0.0
2017-Oct-14 12:58N 40°29' E 017°13'0 0.0
2017-Oct-14 12:28N 40°29' E 017°13'0 0.0
2017-Oct-14 11:58N 40°29' E 017°13'0 0.0
2017-Oct-14 11:28N 40°29' E 017°13'0 0.0
2017-Oct-14 10:58N 40°29' E 017°13'0 0.0
2017-Oct-14 10:28N 40°29' E 017°13'0 0.0
2017-Oct-14 09:58N 40°29' E 017°13'0 0.0
2017-Oct-14 09:28N 40°29' E 017°13'0 0.0
2017-Oct-14 08:58N 40°29' E 017°13'0 0.0
2017-Oct-14 08:28N 40°29' E 017°13'0 0.0
2017-Oct-14 07:58N 40°29' E 017°13'0 0.0
2017-Oct-14 07:28N 40°29' E 017°13'0 0.0
2017-Oct-14 06:58N 40°29' E 017°13'0 0.0
2017-Oct-14 06:28N 40°29' E 017°13'0 0.0
2017-Oct-14 05:58N 40°29' E 017°13'0 0.0
2017-Oct-14 05:28N 40°29' E 017°13'0 0.0
2017-Oct-14 04:58N 40°29' E 017°13'0 0.0
2017-Oct-14 04:28N 40°29' E 017°13'0 0.0
2017-Oct-14 03:58N 40°29' E 017°13'0 0.0
2017-Oct-14 03:28N 40°29' E 017°13'0 0.0
2017-Oct-14 02:58N 40°29' E 017°13'0 0.0
2017-Oct-14 02:28N 40°29' E 017°13'0 0.0
2017-Oct-14 01:58N 40°29' E 017°13'0 0.0
2017-Oct-14 01:28N 40°29' E 017°13'0 0.0
2017-Oct-14 00:58N 40°29' E 017°13'0 0.0
2017-Oct-14 00:28N 40°29' E 017°13'0 0.0
2017-Oct-13 23:58N 40°29' E 017°13'0 0.0
2017-Oct-13 23:25N 40°29' E 017°13'0 0.0
2017-Oct-13 22:58N 40°29' E 017°13'0 0.0
2017-Oct-13 22:28N 40°29' E 017°13'0 0.0
2017-Oct-13 21:58N 40°29' E 017°13'0 0.0
2017-Oct-13 21:28N 40°29' E 017°13'0 0.0
2017-Oct-13 20:58N 40°29' E 017°13'0 0.0
2017-Oct-13 20:28N 40°29' E 017°13'0 0.0
2017-Oct-13 19:58N 40°29' E 017°13'0 0.0
2017-Oct-13 19:30N 40°29' E 017°13'1 1.5
2017-Oct-13 19:00N 40°28' E 017°13'2 3.7
2017-Oct-13 18:29N 40°27' E 017°11'0 0.0
2017-Oct-13 17:59N 40°27' E 017°11'0 0.0
2017-Oct-13 17:29N 40°27' E 017°11'0 0.0
2017-Oct-13 16:59N 40°27' E 017°11'0 0.0
2017-Oct-13 16:29N 40°27' E 017°11'0 0.0
2017-Oct-13 15:59N 40°27' E 017°11'0 0.1
2017-Oct-13 15:29N 40°27' E 017°11'0 0.0
2017-Oct-13 14:59N 40°27' E 017°11'0 0.0
2017-Oct-13 14:29N 40°27' E 017°11'0 0.0
2017-Oct-13 13:59N 40°27' E 017°11'0 0.0
2017-Oct-13 13:29N 40°27' E 017°11'0 0.1
2017-Oct-13 12:59N 40°27' E 017°11'0 0.0
2017-Oct-13 12:26N 40°27' E 017°11'0 0.0
2017-Oct-13 11:59N 40°27' E 017°11'0 0.0
2017-Oct-13 11:29N 40°27' E 017°11'0 0.0
2017-Oct-13 10:59N 40°27' E 017°11'0 0.1
2017-Oct-13 10:29N 40°27' E 017°11'0 0.0
2017-Oct-13 09:59N 40°27' E 017°11'0 0.0
2017-Oct-13 09:29N 40°27' E 017°11'0 0.1
2017-Oct-13 08:59N 40°27' E 017°11'0 0.0
2017-Oct-13 08:29N 40°27' E 017°11'0 0.0
2017-Oct-13 07:59N 40°27' E 017°11'0 0.0
2017-Oct-13 07:26N 40°27' E 017°11'0 0.0
2017-Oct-13 06:59N 40°27' E 017°11'0 0.1
2017-Oct-13 06:29N 40°27' E 017°11'0 0.0
2017-Oct-13 05:56N 40°27' E 017°11'0 0.0
2017-Oct-13 05:29N 40°27' E 017°11'0 0.0
2017-Oct-13 04:59N 40°27' E 017°11'0 0.0
2017-Oct-13 04:28N 40°27' E 017°11'0 0.1
2017-Oct-13 03:58N 40°27' E 017°11'0 0.0
2017-Oct-13 03:28N 40°27' E 017°11'0 0.0
2017-Oct-13 02:58N 40°27' E 017°11'0 0.0
2017-Oct-13 02:28N 40°27' E 017°11'0 0.0
2017-Oct-13 01:58N 40°27' E 017°11'0 0.0
2017-Oct-13 01:28N 40°27' E 017°11'0 0.0
2017-Oct-13 00:58N 40°27' E 017°11'0 0.0
2017-Oct-13 00:28N 40°27' E 017°11'0 0.1
2017-Oct-12 23:58N 40°27' E 017°11'0 0.1
2017-Oct-12 23:28N 40°27' E 017°11'0 0.0
2017-Oct-12 22:58N 40°27' E 017°11'0 0.0
2017-Oct-12 22:28N 40°27' E 017°11'0 0.0
2017-Oct-12 21:58N 40°27' E 017°11'0 0.0
2017-Oct-12 21:28N 40°27' E 017°11'0 0.0
2017-Oct-12 20:58N 40°27' E 017°11'0 0.1
2017-Oct-12 20:28N 40°27' E 017°11'0 0.1
2017-Oct-12 19:58N 40°27' E 017°11'0 0.0
2017-Oct-12 19:28N 40°27' E 017°11'0 0.0
2017-Oct-12 18:58N 40°27' E 017°11'0 0.1
2017-Oct-12 18:28N 40°27' E 017°11'0 0.0
2017-Oct-12 17:59N 40°27' E 017°11'2 5.3
2017-Oct-12 17:30N 40°25' E 017°10'2 3.1
2017-Oct-12 17:00N 40°24' E 017°08'2 3.2
2017-Oct-12 16:30N 40°26' E 017°07'0 0.5
2017-Oct-12 16:01N 40°26' E 017°06'0 0.4
2017-Oct-12 15:30N 40°26' E 017°06'0 0.4
2017-Oct-12 15:01N 40°25' E 017°06'0 0.5
2017-Oct-12 14:30N 40°25' E 017°06'0 0.5
2017-Oct-12 14:00N 40°25' E 017°06'0 0.5
2017-Oct-12 13:30N 40°25' E 017°06'1 2.7
2017-Oct-12 13:01N 40°25' E 017°08'1 1.4
2017-Oct-12 12:30N 40°25' E 017°09'0 0.5
2017-Oct-12 12:00N 40°25' E 017°09'0 0.5
2017-Oct-12 11:30N 40°25' E 017°09'0 0.5
2017-Oct-12 11:00N 40°25' E 017°09'0 0.3
2017-Oct-12 10:31N 40°25' E 017°09'0 0.4
2017-Oct-12 10:00N 40°25' E 017°09'0 0.7
2017-Oct-12 09:31N 40°25' E 017°08'1 1.9
2017-Oct-12 09:01N 40°24' E 017°08'510.5
2017-Oct-12 08:30N 40°18' E 017°08'510.3
2017-Oct-12 08:00N 40°13' E 017°09'510.0
2017-Oct-12 07:30N 40°08' E 017°10'510.3
2017-Oct-12 07:00N 40°03' E 017°11'510.2
2017-Oct-12 06:30N 39°58' E 017°12'510.6
2017-Oct-12 06:00N 39°53' E 017°13'1010.2
2017-Oct-12 05:00N 39°43' E 017°15'610.1
2017-Oct-12 04:25N 39°37' E 017°16'  
Track history (hours):
 
Tides and Currents Weather Stations Pressure Air Temp Water Temp Dewpoint Dewpoint Depression Visibility Wind Speed Wind Dir Waves Ship Positions

Gulizar_ana

Last reported at 2017-Oct-21 20:04 UTC. Time now 2017-Oct-23 00:57 UTC.
Position N 39°50' E 023°58'.

Length 81 m; draft 4 m.

Type: Cargo ship. MMSI: 271000825.

Date/timePositionNaut miles runAvg speedWind from/ knotsBaromVisibWave heightAir tempDewpointWater temp
2017-Oct-21 20:04N 39°50' E 023°58'110.6
2017-Oct-21 19:59N 39°50' E 023°59'1710.4
2017-Oct-21 18:18N 39°46' E 024°21'310.0
2017-Oct-21 18:00N 39°45' E 024°25'510.0
2017-Oct-21 17:30N 39°45' E 024°32'610.2
2017-Oct-21 16:53N 39°45' E 024°40'410.2
2017-Oct-21 16:30N 39°45' E 024°45'710.5
2017-Oct-21 15:52N 39°44' E 024°54'710.6
2017-Oct-21 15:14N 39°43' E 025°02'3810.8
2017-Oct-21 11:44N 39°44' E 025°52'210.0
2017-Oct-21 11:30N 39°44' E 025°55'710.5
2017-Oct-21 10:50N 39°45' E 026°04'  
2017-Oct-18 22:10N 37°54' E 025°35'1 9.3
2017-Oct-18 22:00N 37°52' E 025°34'5 9.3
2017-Oct-18 21:30N 37°48' E 025°31'5 9.1
2017-Oct-18 21:00N 37°45' E 025°28'5 9.0
2017-Oct-18 20:30N 37°41' E 025°25'4 9.0
2017-Oct-18 20:00N 37°37' E 025°21'5 9.0
2017-Oct-18 19:30N 37°34' E 025°18'5 9.4
2017-Oct-18 19:00N 37°30' E 025°14'5 9.3
2017-Oct-18 18:30N 37°27' E 025°09'4 8.7
2017-Oct-18 18:00N 37°25' E 025°05'4 8.8
2017-Oct-18 17:30N 37°22' E 025°00'4 8.7
2017-Oct-18 17:00N 37°19' E 024°56'4 8.4
2017-Oct-18 16:30N 37°16' E 024°53'209 7.2
2017-Oct-17 11:28N 37°47' E 020°32'4 9.6
2017-Oct-17 11:00N 37°50' E 020°28'5 9.8
2017-Oct-17 10:30N 37°54' E 020°24'5 9.7
2017-Oct-17 10:00N 37°57' E 020°19'32 9.5
2017-Oct-17 06:38N 38°19' E 019°49'1 9.7
2017-Oct-17 06:30N 38°20' E 019°48'5 9.6
2017-Oct-17 06:01N 38°23' E 019°44'5 9.5
2017-Oct-17 05:30N 38°26' E 019°39'5 9.3
2017-Oct-17 05:00N 38°29' E 019°35'5 9.1
2017-Oct-17 04:30N 38°32' E 019°31'5 9.0
2017-Oct-17 04:00N 38°35' E 019°26'8 9.1
2017-Oct-17 03:05N 38°41' E 019°18'1 9.3
2017-Oct-17 03:00N 38°42' E 019°18'11 9.4
2017-Oct-17 01:50N 38°49' E 019°07'14 9.5
2017-Oct-17 00:23N 38°59' E 018°54'3 9.4
2017-Oct-17 00:00N 39°01' E 018°51'5 9.4
2017-Oct-16 23:30N 39°04' E 018°47'5 9.3
2017-Oct-16 23:00N 39°08' E 018°43'15 9.1
2017-Oct-16 21:22N 39°19' E 018°30'3 9.3
2017-Oct-16 21:00N 39°21' E 018°27'4 9.1
2017-Oct-16 20:30N 39°24' E 018°23'5 9.1
2017-Oct-16 20:00N 39°28' E 018°18'4 9.0
2017-Oct-16 19:31N 39°31' E 018°15'5 9.1
2017-Oct-16 19:00N 39°35' E 018°11'5 9.2
2017-Oct-16 18:31N 39°38' E 018°07'4 8.8
2017-Oct-16 18:01N 39°41' E 018°02'6 8.6
2017-Oct-16 17:16N 39°45' E 017°56'4 8.5
2017-Oct-16 16:44N 39°47' E 017°52'2 8.8
2017-Oct-16 16:30N 39°49' E 017°50'4 9.0
2017-Oct-16 16:01N 39°52' E 017°45'4 8.7
2017-Oct-16 15:31N 39°55' E 017°41'4 8.9
2017-Oct-16 15:00N 39°58' E 017°37'9 8.9
2017-Oct-16 14:00N 40°04' E 017°29'4 9.0
2017-Oct-16 13:31N 40°08' E 017°25'4 8.9
2017-Oct-16 13:00N 40°11' E 017°21'5 9.0
2017-Oct-16 12:30N 40°14' E 017°17'5 9.1
2017-Oct-16 12:01N 40°18' E 017°13'4 9.0
2017-Oct-16 11:30N 40°21' E 017°09'4 7.2
2017-Oct-16 11:00N 40°24' E 017°07'5 9.1
2017-Oct-16 10:30N 40°27' E 017°12'2 4.8
2017-Oct-16 10:00N 40°29' E 017°13'0 0.0
2017-Oct-16 09:30N 40°29' E 017°13'0 0.0
2017-Oct-16 08:59N 40°29' E 017°13'0 0.0
2017-Oct-16 08:29N 40°29' E 017°13'0 0.0
2017-Oct-16 07:59N 40°29' E 017°13'0 0.0
2017-Oct-16 07:29N 40°29' E 017°13'0 0.0
2017-Oct-16 06:59N 40°29' E 017°13'0 0.0
2017-Oct-16 06:29N 40°29' E 017°13'0 0.0
2017-Oct-16 05:59N 40°29' E 017°13'0 0.0
2017-Oct-16 05:29N 40°29' E 017°13'0 0.0
2017-Oct-16 04:59N 40°29' E 017°13'0 0.0
2017-Oct-16 04:29N 40°29' E 017°13'0 0.0
2017-Oct-16 03:59N 40°29' E 017°13'0 0.0
2017-Oct-16 03:29N 40°29' E 017°13'0 0.0
2017-Oct-16 02:59N 40°29' E 017°13'0 0.0
2017-Oct-16 02:29N 40°29' E 017°13'0 0.0
2017-Oct-16 01:59N 40°29' E 017°13'0 0.0
2017-Oct-16 01:29N 40°29' E 017°13'0 0.0
2017-Oct-16 00:59N 40°29' E 017°13'0 0.0
2017-Oct-16 00:29N 40°29' E 017°13'0 0.0
2017-Oct-15 23:59N 40°29' E 017°13'0 0.0
2017-Oct-15 23:29N 40°29' E 017°13'0 0.0
2017-Oct-15 22:59N 40°29' E 017°13'0 0.0
2017-Oct-15 22:29N 40°29' E 017°13'0 0.0
2017-Oct-15 21:59N 40°29' E 017°13'0 0.0
2017-Oct-15 21:29N 40°29' E 017°13'0 0.0
2017-Oct-15 20:59N 40°29' E 017°13'0 0.0
2017-Oct-15 20:29N 40°29' E 017°13'0 0.0
2017-Oct-15 19:59N 40°29' E 017°13'0 0.0
2017-Oct-15 19:29N 40°29' E 017°13'0 0.0
2017-Oct-15 18:59N 40°29' E 017°13'0 0.0
2017-Oct-15 18:29N 40°29' E 017°13'0 0.0
2017-Oct-15 17:59N 40°29' E 017°13'0 0.0
2017-Oct-15 17:29N 40°29' E 017°13'0 0.0
2017-Oct-15 16:59N 40°29' E 017°13'0 0.0
2017-Oct-15 16:29N 40°29' E 017°13'0 0.0
2017-Oct-15 15:59N 40°29' E 017°13'0 0.0
2017-Oct-15 15:29N 40°29' E 017°13'0 0.0
2017-Oct-15 14:59N 40°29' E 017°13'0 0.0
2017-Oct-15 13:59N 40°29' E 017°13'0 0.0
2017-Oct-15 13:29N 40°29' E 017°13'0 0.0
2017-Oct-15 12:59N 40°29' E 017°13'0 0.0
2017-Oct-15 12:29N 40°29' E 017°13'0 0.0
2017-Oct-15 11:59N 40°29' E 017°13'0 0.0
2017-Oct-15 11:29N 40°29' E 017°13'0 0.0
2017-Oct-15 10:59N 40°29' E 017°13'0 0.0
2017-Oct-15 10:29N 40°29' E 017°13'0 0.0
2017-Oct-15 09:59N 40°29' E 017°13'0 0.0
2017-Oct-15 09:29N 40°29' E 017°13'0 0.0
2017-Oct-15 08:58N 40°29' E 017°13'0 0.0
2017-Oct-15 08:28N 40°29' E 017°13'0 0.0
2017-Oct-15 07:58N 40°29' E 017°13'0 0.0
2017-Oct-15 07:28N 40°29' E 017°13'0 0.0
2017-Oct-15 06:58N 40°29' E 017°13'0 0.0
2017-Oct-15 06:28N 40°29' E 017°13'0 0.0
2017-Oct-15 05:58N 40°29' E 017°13'0 0.0
2017-Oct-15 05:28N 40°29' E 017°13'0 0.0
2017-Oct-15 04:58N 40°29' E 017°13'0 0.0
2017-Oct-15 04:28N 40°29' E 017°13'0 0.0
2017-Oct-15 03:58N 40°29' E 017°13'0 0.0
2017-Oct-15 03:28N 40°29' E 017°13'0 0.0
2017-Oct-15 02:58N 40°29' E 017°13'0 0.0
2017-Oct-15 02:28N 40°29' E 017°13'0 0.0
2017-Oct-15 01:58N 40°29' E 017°13'0 0.0
2017-Oct-15 01:28N 40°29' E 017°13'0 0.0
2017-Oct-15 00:58N 40°29' E 017°13'0 0.0
2017-Oct-15 00:28N 40°29' E 017°13'0 0.0
2017-Oct-14 23:58N 40°29' E 017°13'0 0.0
2017-Oct-14 23:28N 40°29' E 017°13'0 0.0
2017-Oct-14 22:58N 40°29' E 017°13'0 0.0
2017-Oct-14 22:28N 40°29' E 017°13'0 0.0
2017-Oct-14 21:58N 40°29' E 017°13'0 0.0
2017-Oct-14 21:28N 40°29' E 017°13'0 0.0
2017-Oct-14 20:58N 40°29' E 017°13'0 0.0
2017-Oct-14 20:28N 40°29' E 017°13'0 0.0
2017-Oct-14 19:58N 40°29' E 017°13'0 0.0
2017-Oct-14 19:28N 40°29' E 017°13'0 0.0
2017-Oct-14 18:58N 40°29' E 017°13'0 0.0
2017-Oct-14 18:28N 40°29' E 017°13'0 0.0
2017-Oct-14 17:58N 40°29' E 017°13'0 0.0
2017-Oct-14 17:28N 40°29' E 017°13'0 0.0
2017-Oct-14 16:58N 40°29' E 017°13'0 0.0
2017-Oct-14 16:28N 40°29' E 017°13'0 0.0
2017-Oct-14 15:58N 40°29' E 017°13'0 0.0
2017-Oct-14 15:28N 40°29' E 017°13'0 0.0
2017-Oct-14 14:58N 40°29' E 017°13'0 0.0
2017-Oct-14 14:28N 40°29' E 017°13'0 0.0
2017-Oct-14 13:58N 40°29' E 017°13'0 0.0
2017-Oct-14 13:28N 40°29' E 017°13'0 0.0
2017-Oct-14 12:58N 40°29' E 017°13'0 0.0
2017-Oct-14 12:28N 40°29' E 017°13'0 0.0
2017-Oct-14 11:58N 40°29' E 017°13'0 0.0
2017-Oct-14 11:28N 40°29' E 017°13'0 0.0
2017-Oct-14 10:58N 40°29' E 017°13'0 0.0
2017-Oct-14 10:28N 40°29' E 017°13'0 0.0
2017-Oct-14 09:58N 40°29' E 017°13'0 0.0
2017-Oct-14 09:28N 40°29' E 017°13'0 0.0
2017-Oct-14 08:58N 40°29' E 017°13'0 0.0
2017-Oct-14 08:28N 40°29' E 017°13'0 0.0
2017-Oct-14 07:58N 40°29' E 017°13'0 0.0
2017-Oct-14 07:28N 40°29' E 017°13'0 0.0
2017-Oct-14 06:58N 40°29' E 017°13'0 0.0
2017-Oct-14 06:28N 40°29' E 017°13'0 0.0
2017-Oct-14 05:58N 40°29' E 017°13'0 0.0
2017-Oct-14 05:28N 40°29' E 017°13'0 0.0
2017-Oct-14 04:58N 40°29' E 017°13'0 0.0
2017-Oct-14 04:28N 40°29' E 017°13'0 0.0
2017-Oct-14 03:58N 40°29' E 017°13'0 0.0
2017-Oct-14 03:28N 40°29' E 017°13'0 0.0
2017-Oct-14 02:58N 40°29' E 017°13'0 0.0
2017-Oct-14 02:28N 40°29' E 017°13'0 0.0
2017-Oct-14 01:58N 40°29' E 017°13'0 0.0
2017-Oct-14 01:28N 40°29' E 017°13'0 0.0
2017-Oct-14 00:58N 40°29' E 017°13'0 0.0
2017-Oct-14 00:28N 40°29' E 017°13'0 0.0
2017-Oct-13 23:58N 40°29' E 017°13'0 0.0
2017-Oct-13 23:25N 40°29' E 017°13'0 0.0
2017-Oct-13 22:58N 40°29' E 017°13'0 0.0
2017-Oct-13 22:28N 40°29' E 017°13'0 0.0
2017-Oct-13 21:58N 40°29' E 017°13'0 0.0
2017-Oct-13 21:28N 40°29' E 017°13'0 0.0
2017-Oct-13 20:58N 40°29' E 017°13'0 0.0
2017-Oct-13 20:28N 40°29' E 017°13'0 0.0
2017-Oct-13 19:58N 40°29' E 017°13'0 0.0
2017-Oct-13 19:30N 40°29' E 017°13'1 1.5
2017-Oct-13 19:00N 40°28' E 017°13'2 3.7
2017-Oct-13 18:29N 40°27' E 017°11'0 0.0
2017-Oct-13 17:59N 40°27' E 017°11'0 0.0
2017-Oct-13 17:29N 40°27' E 017°11'0 0.0
2017-Oct-13 16:59N 40°27' E 017°11'0 0.0
2017-Oct-13 16:29N 40°27' E 017°11'0 0.0
2017-Oct-13 15:59N 40°27' E 017°11'0 0.1
2017-Oct-13 15:29N 40°27' E 017°11'0 0.0
2017-Oct-13 14:59N 40°27' E 017°11'0 0.0
2017-Oct-13 14:29N 40°27' E 017°11'0 0.0
2017-Oct-13 13:59N 40°27' E 017°11'0 0.0
2017-Oct-13 13:29N 40°27' E 017°11'0 0.1
2017-Oct-13 12:59N 40°27' E 017°11'0 0.0
2017-Oct-13 12:26N 40°27' E 017°11'0 0.0
2017-Oct-13 11:59N 40°27' E 017°11'0 0.0
2017-Oct-13 11:29N 40°27' E 017°11'0 0.0
2017-Oct-13 10:59N 40°27' E 017°11'0 0.1
2017-Oct-13 10:29N 40°27' E 017°11'0 0.0
2017-Oct-13 09:59N 40°27' E 017°11'0 0.0
2017-Oct-13 09:29N 40°27' E 017°11'0 0.1
2017-Oct-13 08:59N 40°27' E 017°11'0 0.0
2017-Oct-13 08:29N 40°27' E 017°11'0 0.0
2017-Oct-13 07:59N 40°27' E 017°11'0 0.0
2017-Oct-13 07:26N 40°27' E 017°11'0 0.0
2017-Oct-13 06:59N 40°27' E 017°11'0 0.1
2017-Oct-13 06:29N 40°27' E 017°11'0 0.0
2017-Oct-13 05:56N 40°27' E 017°11'0 0.0
2017-Oct-13 05:29N 40°27' E 017°11'0 0.0
2017-Oct-13 04:59N 40°27' E 017°11'0 0.0
2017-Oct-13 04:28N 40°27' E 017°11'0 0.1
2017-Oct-13 03:58N 40°27' E 017°11'0 0.0
2017-Oct-13 03:28N 40°27' E 017°11'0 0.0
2017-Oct-13 02:58N 40°27' E 017°11'0 0.0
2017-Oct-13 02:28N 40°27' E 017°11'0 0.0
2017-Oct-13 01:58N 40°27' E 017°11'0 0.0
2017-Oct-13 01:28N 40°27' E 017°11'0 0.0
2017-Oct-13 00:58N 40°27' E 017°11'0 0.0
2017-Oct-13 00:28N 40°27' E 017°11'0 0.1
2017-Oct-12 23:58N 40°27' E 017°11'0 0.1
2017-Oct-12 23:28N 40°27' E 017°11'0 0.0
2017-Oct-12 22:58N 40°27' E 017°11'0 0.0
2017-Oct-12 22:28N 40°27' E 017°11'0 0.0
2017-Oct-12 21:58N 40°27' E 017°11'0 0.0
2017-Oct-12 21:28N 40°27' E 017°11'0 0.0
2017-Oct-12 20:58N 40°27' E 017°11'0 0.1
2017-Oct-12 20:28N 40°27' E 017°11'0 0.1
2017-Oct-12 19:58N 40°27' E 017°11'0 0.0
2017-Oct-12 19:28N 40°27' E 017°11'0 0.0
2017-Oct-12 18:58N 40°27' E 017°11'0 0.1
2017-Oct-12 18:28N 40°27' E 017°11'0 0.0
2017-Oct-12 17:59N 40°27' E 017°11'2 5.3
2017-Oct-12 17:30N 40°25' E 017°10'2 3.1
2017-Oct-12 17:00N 40°24' E 017°08'2 3.2
2017-Oct-12 16:30N 40°26' E 017°07'0 0.5
2017-Oct-12 16:01N 40°26' E 017°06'0 0.4
2017-Oct-12 15:30N 40°26' E 017°06'0 0.4
2017-Oct-12 15:01N 40°25' E 017°06'0 0.5
2017-Oct-12 14:30N 40°25' E 017°06'0 0.5
2017-Oct-12 14:00N 40°25' E 017°06'0 0.5
2017-Oct-12 13:30N 40°25' E 017°06'1 2.7
2017-Oct-12 13:01N 40°25' E 017°08'1 1.4
2017-Oct-12 12:30N 40°25' E 017°09'0 0.5
2017-Oct-12 12:00N 40°25' E 017°09'0 0.5
2017-Oct-12 11:30N 40°25' E 017°09'0 0.5
2017-Oct-12 11:00N 40°25' E 017°09'0 0.3
2017-Oct-12 10:31N 40°25' E 017°09'0 0.4
2017-Oct-12 10:00N 40°25' E 017°09'0 0.7
2017-Oct-12 09:31N 40°25' E 017°08'1 1.9
2017-Oct-12 09:01N 40°24' E 017°08'510.5
2017-Oct-12 08:30N 40°18' E 017°08'510.3
2017-Oct-12 08:00N 40°13' E 017°09'510.0
2017-Oct-12 07:30N 40°08' E 017°10'510.3
2017-Oct-12 07:00N 40°03' E 017°11'510.2
2017-Oct-12 06:30N 39°58' E 017°12'510.6
2017-Oct-12 06:00N 39°53' E 017°13'1010.2
2017-Oct-12 05:00N 39°43' E 017°15'610.1
2017-Oct-12 04:25N 39°37' E 017°16'  

Dump ship's entire track history